Time;durP1;ratioP1;P1;durP2;ratioP2;P2;SDS_P1;SDS_P2;PMS_P1;PMS_P2;Temp;Humidity;BMP_temperature;BMP_pressure;BME280_temperature;BME280_humidity;BME280_pressure;Samples;Min_cycle;Max_cycle;Signal;HPM_P1;HPM_P2
2021/04/10 00:00:25;;;;;;;8.50;2.40;;;6.90;99.90;;;;;;5041643;28;20034;-73
2021/04/10 00:02:51;;;;;;;11.02;2.65;;;6.90;99.90;;;;;;5035901;28;20483;-73
2021/04/10 00:05:21;;;;;;;12.38;2.00;;;7.00;99.90;;;;;;5039711;28;20061;-73
2021/04/10 00:07:46;;;;;;;7.43;1.85;;;6.90;99.90;;;;;;5043750;28;20025;-73
2021/04/10 00:10:13;;;;;;;6.60;1.73;;;6.90;99.90;;;;;;5047482;28;20530;-73
2021/04/10 00:12:39;;;;;;;5.97;2.28;;;6.80;99.90;;;;;;5059488;28;20025;-73
2021/04/10 00:15:09;;;;;;;12.13;2.72;;;6.80;99.90;;;;;;5060298;28;20063;-73
2021/04/10 00:17:34;;;;;;;12.38;2.47;;;6.90;99.90;;;;;;5068663;28;20300;-74
2021/04/10 00:20:00;;;;;;;10.00;2.10;;;6.80;99.90;;;;;;5058190;28;20025;-73
2021/04/10 00:22:26;;;;;;;7.55;2.22;;;6.90;99.90;;;;;;5056727;28;20098;-73
2021/04/10 00:24:52;;;;;;;7.57;2.30;;;6.90;99.90;;;;;;5047978;28;20021;-73
2021/04/10 00:27:17;;;;;;;9.85;2.50;;;6.70;99.90;;;;;;5047222;28;20036;-75
2021/04/10 00:29:43;;;;;;;7.07;1.80;;;6.70;99.90;;;;;;5036534;28;20087;-73
2021/04/10 00:32:09;;;;;;;10.70;2.40;;;6.70;99.90;;;;;;5034995;28;20040;-72
2021/04/10 00:34:35;;;;;;;9.35;1.88;;;6.70;99.90;;;;;;5033715;28;20026;-74
2021/04/10 00:37:00;;;;;;;7.07;2.60;;;6.80;99.90;;;;;;5035134;28;20025;-74
2021/04/10 00:39:26;;;;;;;20.55;2.30;;;6.80;99.90;;;;;;5035394;28;20017;-74
2021/04/10 00:41:52;;;;;;;7.63;1.95;;;6.70;99.90;;;;;;5034035;28;20032;-74
2021/04/10 00:44:17;;;;;;;2.10;1.58;;;6.70;99.90;;;;;;5033788;28;20033;-74
2021/04/10 00:46:43;;;;;;;6.45;2.22;;;6.70;99.90;;;;;;5033837;28;20025;-75
2021/04/10 00:49:09;;;;;;;6.63;1.92;;;6.70;99.90;;;;;;5034898;28;20068;-74
2021/04/10 00:51:34;;;;;;;15.18;2.42;;;6.70;99.90;;;;;;5034763;28;20033;-73
2021/04/10 00:54:00;;;;;;;8.60;2.45;;;6.70;99.90;;;;;;5033560;28;20079;-74
2021/04/10 00:56:26;;;;;;;7.22;2.13;;;6.70;99.90;;;;;;5034525;28;20021;-74
2021/04/10 00:58:52;;;;;;;8.93;1.92;;;6.70;99.90;;;;;;5034315;28;20044;-72
2021/04/10 01:01:18;;;;;;;8.68;1.80;;;6.70;99.90;;;;;;5031754;28;20022;-74
2021/04/10 01:03:44;;;;;;;10.35;2.05;;;6.80;99.90;;;;;;5031502;28;20119;-73
2021/04/10 01:06:10;;;;;;;7.03;1.58;;;6.70;99.90;;;;;;5034922;28;20081;-73
2021/04/10 01:08:36;;;;;;;6.85;2.83;;;6.60;99.90;;;;;;5032967;28;20548;-72
2021/04/10 01:11:10;;;;;;;9.85;2.00;;;6.60;99.90;;;;;;5031175;28;20072;-73
2021/04/10 01:13:54;;;;;;;3.78;2.33;;;6.60;99.90;;;;;;5033667;28;20038;-74
2021/04/10 01:16:26;;;;;;;11.85;2.75;;;6.60;99.90;;;;;;5032722;28;20068;-74
2021/04/10 01:19:22;;;;;;;7.32;2.38;;;6.50;99.90;;;;;;5032447;28;20034;-74
2021/04/10 01:22:31;;;;;;;11.05;2.38;;;6.50;99.90;;;;;;5034126;28;20033;-73
2021/04/10 01:25:16;;;;;;;5.55;1.90;;;6.40;99.90;;;;;;5004655;28;20087;-73
2021/04/10 01:27:56;;;;;;;11.15;1.92;;;6.40;99.90;;;;;;5033961;28;20029;-73
2021/04/10 01:30:22;;;;;;;8.20;2.88;;;6.40;99.90;;;;;;5034002;28;20028;-73
2021/04/10 01:32:58;;;;;;;14.93;2.63;;;6.50;99.90;;;;;;5032542;28;20029;-73
2021/04/10 01:35:29;;;;;;;8.45;2.00;;;6.50;99.90;;;;;;5031564;28;20116;-73
2021/04/10 01:38:04;;;;;;;8.23;1.60;;;6.50;99.90;;;;;;5032617;28;20031;-73
2021/04/10 01:40:32;;;;;;;13.32;1.85;;;6.60;99.90;;;;;;5033611;28;20052;-71
2021/04/10 01:42:59;;;;;;;5.22;1.63;;;6.60;99.90;;;;;;5031938;28;20041;-72
2021/04/10 01:45:26;;;;;;;7.95;2.47;;;6.60;99.90;;;;;;5033896;28;20029;-73
2021/04/10 01:47:55;;;;;;;9.23;2.00;;;6.70;99.90;;;;;;5049212;28;20030;-73
2021/04/10 01:50:22;;;;;;;12.35;1.67;;;6.70;99.90;;;;;;5032963;28;20389;-72
2021/04/10 01:52:50;;;;;;;9.88;2.33;;;6.80;99.90;;;;;;5032316;28;20072;-72
2021/04/10 01:55:17;;;;;;;8.70;2.30;;;6.70;99.90;;;;;;5033949;28;20033;-71
2021/04/10 01:57:43;;;;;;;20.80;1.63;;;6.70;99.90;;;;;;5039811;28;20017;-72
2021/04/10 02:00:10;;;;;;;5.93;1.65;;;6.70;99.90;;;;;;5042433;28;20067;-73
2021/04/10 02:02:42;;;;;;;11.13;2.30;;;6.70;99.90;;;;;;5045362;28;20025;-76
2021/04/10 02:05:11;;;;;;;10.18;1.77;;;6.70;99.90;;;;;;5043168;28;20073;-72
2021/04/10 02:07:40;;;;;;;6.30;1.88;;;6.70;99.90;;;;;;5047791;28;20466;-73
2021/04/10 02:10:08;;;;;;;5.47;1.70;;;6.60;99.90;;;;;;5048005;28;20021;-72
2021/04/10 02:12:34;;;;;;;10.10;2.23;;;6.60;99.90;;;;;;5042372;28;20029;-72
2021/04/10 02:15:01;;;;;;;4.38;1.30;;;6.60;99.90;;;;;;5035328;28;20032;-73
2021/04/10 02:17:28;;;;;;;10.02;2.63;;;6.60;99.90;;;;;;5033754;28;20049;-72
2021/04/10 02:19:55;;;;;;;8.90;2.63;;;6.70;99.90;;;;;;5034823;28;20014;-72
2021/04/10 02:22:22;;;;;;;9.32;2.20;;;6.70;99.90;;;;;;5032498;28;20030;-71
2021/04/10 02:24:48;;;;;;;10.38;2.20;;;6.70;99.90;;;;;;5033760;28;20031;-71
2021/04/10 02:27:14;;;;;;;8.18;1.90;;;6.60;99.90;;;;;;5031499;28;20033;-71
2021/04/10 02:29:40;;;;;;;12.43;1.88;;;6.60;99.90;;;;;;5033593;28;20032;-72
2021/04/10 02:32:19;;;;;;;5.07;2.10;;;6.60;99.90;;;;;;5032702;28;20088;-72
2021/04/10 02:34:55;;;;;;;4.00;2.13;;;6.60;99.90;;;;;;5032986;28;20029;-72
2021/04/10 02:37:22;;;;;;;10.60;2.33;;;6.50;99.90;;;;;;5027857;28;20076;-71
2021/04/10 02:39:49;;;;;;;9.10;3.35;;;6.50;99.90;;;;;;5033492;28;20022;-73
2021/04/10 02:42:16;;;;;;;5.82;1.90;;;6.60;99.90;;;;;;5030824;28;20084;-73
2021/04/10 02:44:48;;;;;;;13.68;2.25;;;6.70;99.90;;;;;;5031845;28;20033;-74
2021/04/10 02:47:17;;;;;;;8.60;2.00;;;6.60;99.90;;;;;;5030301;28;20485;-73
2021/04/10 02:49:50;;;;;;;6.15;1.75;;;6.60;99.90;;;;;;5032557;28;20033;-73
2021/04/10 02:52:25;;;;;;;6.55;1.83;;;6.50;99.90;;;;;;5032641;28;20040;-73
2021/04/10 02:54:52;;;;;;;7.45;1.85;;;6.60;99.90;;;;;;5048388;28;20029;-72
2021/04/10 02:57:19;;;;;;;8.52;2.30;;;6.60;99.90;;;;;;5032808;28;20101;-72
2021/04/10 02:59:48;;;;;;;2.10;1.48;;;6.60;99.90;;;;;;5032158;28;20432;-72
2021/04/10 03:02:15;;;;;;;13.68;3.08;;;6.70;99.90;;;;;;5031797;28;20355;-73
2021/04/10 03:04:44;;;;;;;9.45;2.13;;;6.70;99.90;;;;;;5031045;28;20123;-74
2021/04/10 03:07:11;;;;;;;9.32;2.03;;;6.70;99.90;;;;;;5031442;28;20025;-72
2021/04/10 03:09:40;;;;;;;5.00;1.77;;;6.70;99.90;;;;;;5031041;28;20516;-73
2021/04/10 03:12:07;;;;;;;11.13;2.15;;;6.70;99.90;;;;;;5032339;28;20080;-72
2021/04/10 03:14:34;;;;;;;11.57;2.10;;;6.60;99.90;;;;;;5030373;28;20478;-73
2021/04/10 03:17:01;;;;;;;9.80;2.17;;;6.60;99.90;;;;;;5032462;28;20493;-73
2021/04/10 03:19:28;;;;;;;7.03;2.42;;;6.60;99.90;;;;;;5032495;28;21407;-73
2021/04/10 03:21:54;;;;;;;3.40;1.95;;;6.50;99.90;;;;;;5031089;28;20025;-72
2021/04/10 03:24:19;;;;;;;7.70;1.95;;;6.60;99.90;;;;;;5032650;28;20413;-74
2021/04/10 03:26:45;;;;;;;5.93;2.17;;;6.60;99.90;;;;;;5031358;28;20056;-73
2021/04/10 03:29:12;;;;;;;12.85;3.25;;;6.60;99.90;;;;;;5031072;28;20101;-73
2021/04/10 03:31:38;;;;;;;11.30;2.80;;;6.60;99.90;;;;;;5032982;28;20501;-73
2021/04/10 03:34:05;;;;;;;9.55;2.30;;;6.60;99.90;;;;;;5031907;28;20032;-72
2021/04/10 03:36:33;;;;;;;9.32;2.25;;;6.60;99.90;;;;;;5032152;28;20474;-73
2021/04/10 03:39:18;;;;;;;10.60;2.92;;;6.60;99.90;;;;;;5044633;28;20028;-73
2021/04/10 03:41:43;;;;;;;6.10;2.67;;;6.50;99.90;;;;;;5047231;28;20040;-76
2021/04/10 03:44:09;;;;;;;7.03;2.58;;;6.60;99.90;;;;;;5049856;28;20029;-74
2021/04/10 03:46:39;;;;;;;12.85;2.40;;;6.70;99.90;;;;;;5051092;28;20101;-77
2021/04/10 03:49:05;;;;;;;12.10;2.72;;;6.60;99.90;;;;;;5054356;28;20045;-76
2021/04/10 03:51:31;;;;;;;8.88;2.53;;;6.50;99.90;;;;;;5052304;28;20025;-74
2021/04/10 03:53:58;;;;;;;9.60;2.60;;;6.50;99.90;;;;;;5044668;28;20030;-74
2021/04/10 03:56:23;;;;;;;8.35;2.45;;;6.60;99.90;;;;;;5034507;28;20025;-74
2021/04/10 03:58:49;;;;;;;6.53;2.50;;;6.50;99.90;;;;;;5035067;28;20037;-74
2021/04/10 04:01:15;;;;;;;15.52;2.47;;;6.50;99.90;;;;;;5033681;28;20083;-72
2021/04/10 04:03:40;;;;;;;9.35;3.13;;;6.40;99.90;;;;;;5047223;28;20124;-73
2021/04/10 04:06:06;;;;;;;14.02;3.03;;;6.40;99.90;;;;;;5030922;28;20025;-73
2021/04/10 04:08:32;;;;;;;10.75;2.63;;;6.40;99.90;;;;;;5032372;28;20026;-73
2021/04/10 04:10:57;;;;;;;11.43;2.40;;;6.40;99.90;;;;;;5030803;28;20078;-73
2021/04/10 04:13:23;;;;;;;8.30;2.47;;;6.40;99.90;;;;;;5032013;28;20030;-73
2021/04/10 04:15:48;;;;;;;8.93;2.72;;;6.40;99.90;;;;;;5031383;28;20022;-74
2021/04/10 04:18:14;;;;;;;12.27;2.67;;;6.40;99.90;;;;;;5030657;28;20120;-73
2021/04/10 04:20:40;;;;;;;7.22;2.65;;;6.40;99.90;;;;;;5030865;28;20029;-73
2021/04/10 04:23:06;;;;;;;14.40;2.70;;;6.40;99.90;;;;;;5031741;28;20529;-72
2021/04/10 04:25:32;;;;;;;7.65;2.13;;;6.30;99.90;;;;;;5030116;28;20033;-72
2021/04/10 04:27:57;;;;;;;12.35;2.95;;;6.40;99.90;;;;;;5031528;28;20151;-72
2021/04/10 04:30:23;;;;;;;15.90;2.63;;;6.50;99.90;;;;;;5031744;28;20518;-72
2021/04/10 04:32:49;;;;;;;9.10;2.63;;;6.40;99.90;;;;;;5033558;28;20136;-72
2021/04/10 04:35:15;;;;;;;12.13;2.45;;;6.40;99.90;;;;;;5035130;28;20087;-72
2021/04/10 04:37:41;;;;;;;13.63;2.55;;;6.30;99.90;;;;;;5033127;28;20026;-72
2021/04/10 04:40:08;;;;;;;10.70;2.25;;;6.30;99.90;;;;;;5033518;28;20056;-72
2021/04/10 04:42:33;;;;;;;13.60;2.53;;;6.30;99.90;;;;;;5050685;28;20060;-72
2021/04/10 04:44:59;;;;;;;7.07;2.13;;;6.30;99.90;;;;;;5033664;28;20084;-74
2021/04/10 04:47:24;;;;;;;14.52;2.20;;;6.20;99.90;;;;;;5033811;28;20037;-71
2021/04/10 04:49:50;;;;;;;9.30;2.38;;;6.30;99.90;;;;;;5034184;28;20121;-71
2021/04/10 04:52:16;;;;;;;10.52;2.20;;;6.40;99.90;;;;;;5035112;28;20393;-73
2021/04/10 04:54:42;;;;;;;15.13;2.83;;;6.40;99.90;;;;;;5035175;28;20104;-73
2021/04/10 04:57:07;;;;;;;6.88;1.73;;;6.40;99.90;;;;;;5032903;28;20036;-74
2021/04/10 04:59:33;;;;;;;13.48;2.30;;;6.50;99.90;;;;;;5034282;28;20045;-73
2021/04/10 05:01:59;;;;;;;6.25;1.88;;;6.50;99.90;;;;;;5031176;28;20029;-72
2021/04/10 05:04:27;;;;;;;5.10;1.80;;;6.50;99.90;;;;;;5034882;28;20026;-73
2021/04/10 05:06:53;;;;;;;;;;;6.50;99.90;;;;;;5035318;28;20075;-73
2021/04/10 05:09:19;;;;;;;11.80;1.80;;;6.50;99.90;;;;;;5033465;28;20000;-72
2021/04/10 05:11:44;;;;;;;7.25;1.80;;;6.60;99.90;;;;;;5032940;28;20025;-73
2021/04/10 05:14:10;;;;;;;6.85;2.22;;;6.50;99.90;;;;;;5034855;28;20556;-73
2021/04/10 05:16:36;;;;;;;6.28;1.90;;;6.40;99.90;;;;;;5037468;28;20041;-73
2021/04/10 05:19:02;;;;;;;8.13;1.33;;;6.40;99.90;;;;;;5043889;28;20378;-73
2021/04/10 05:21:28;;;;;;;11.18;2.03;;;6.30;99.90;;;;;;5043706;28;20025;-73
2021/04/10 05:23:53;;;;;;;13.55;1.80;;;6.40;99.90;;;;;;5047438;28;20052;-73
2021/04/10 05:26:19;;;;;;;6.20;1.88;;;6.40;99.90;;;;;;5048107;28;20041;-73
2021/04/10 05:28:45;;;;;;;12.50;2.42;;;6.30;99.90;;;;;;5048155;28;20030;-72
2021/04/10 05:31:11;;;;;;;4.95;2.05;;;6.40;99.90;;;;;;5046160;28;20038;-72
2021/04/10 05:33:36;;;;;;;12.57;2.22;;;6.40;99.90;;;;;;5038355;28;20535;-72
2021/04/10 05:36:02;;;;;;;10.95;2.40;;;6.40;99.90;;;;;;5037778;28;20036;-72
2021/04/10 05:38:28;;;;;;;11.90;2.45;;;6.50;99.90;;;;;;5036765;28;20021;-72
2021/04/10 05:40:54;;;;;;;7.30;1.95;;;6.60;99.90;;;;;;5034416;28;20032;-72
2021/04/10 05:43:20;;;;;;;21.27;2.40;;;6.70;99.90;;;;;;5031432;28;20151;-73
2021/04/10 05:45:46;;;;;;;13.10;1.83;;;6.70;99.90;;;;;;5034041;28;20022;-72
2021/04/10 05:48:12;;;;;;;11.77;2.85;;;6.60;99.90;;;;;;5033317;28;20033;-72
2021/04/10 05:50:37;;;;;;;6.95;2.20;;;6.70;99.90;;;;;;5033410;28;20505;-73
2021/04/10 05:53:03;;;;;;;7.78;1.80;;;6.70;99.90;;;;;;5033097;28;20167;-72
2021/04/10 05:55:29;;;;;;;4.80;1.50;;;6.70;99.90;;;;;;5033775;28;20021;-72
2021/04/10 05:57:54;;;;;;;4.30;2.00;;;6.70;99.90;;;;;;5033562;28;20010;-72
2021/04/10 06:00:21;;;;;;;6.22;1.60;;;6.70;99.90;;;;;;5032001;28;20026;-72
2021/04/10 06:02:50;;;;;;;4.93;2.78;;;6.70;99.90;;;;;;5033339;28;20063;-72
2021/04/10 06:05:19;;;;;;;8.18;2.03;;;6.70;99.90;;;;;;5033601;28;20041;-71
2021/04/10 06:07:44;;;;;;;;;;;6.60;99.90;;;;;;5033488;28;20032;-72
2021/04/10 06:10:16;;;;;;;6.88;1.67;;;6.60;99.90;;;;;;5033276;28;19909;-72
2021/04/10 06:12:42;;;;;;;10.10;2.05;;;6.70;99.90;;;;;;5033546;28;20486;-73
2021/04/10 06:15:10;;;;;;;7.13;2.60;;;6.80;99.90;;;;;;5032292;28;20021;-71
2021/04/10 06:17:37;;;;;;;6.82;1.88;;;6.80;99.90;;;;;;5031338;28;20512;-71
2021/04/10 06:20:08;;;;;;;6.40;1.70;;;6.80;99.90;;;;;;5031713;28;20056;-72
2021/04/10 06:22:34;;;;;;;12.00;1.98;;;6.80;99.90;;;;;;5032851;28;20034;-72
2021/04/10 06:24:59;;;;;;;7.30;1.77;;;6.80;99.90;;;;;;5032340;28;20025;-73
2021/04/10 06:27:25;;;;;;;11.18;2.42;;;6.80;99.90;;;;;;5031235;28;20023;-72
2021/04/10 06:29:50;;;;;;;12.15;2.65;;;6.80;99.90;;;;;;5032053;28;20389;-73
2021/04/10 06:32:16;;;;;;;11.32;2.25;;;6.80;99.90;;;;;;5031868;28;20032;-73
2021/04/10 06:34:42;;;;;;;10.40;2.10;;;6.80;99.90;;;;;;5032252;28;20474;-73
2021/04/10 06:37:08;;;;;;;7.35;1.40;;;6.90;99.90;;;;;;5033466;28;20389;-73
2021/04/10 06:39:33;;;;;;;9.60;1.90;;;7.00;99.90;;;;;;5031760;28;20374;-73
2021/04/10 06:41:59;;;;;;;9.63;2.03;;;7.10;99.90;;;;;;5032527;28;20573;-72
2021/04/10 06:44:26;;;;;;;9.57;1.75;;;7.10;99.90;;;;;;5031789;28;20490;-73
2021/04/10 06:46:56;;;;;;;15.82;2.70;;;7.10;99.90;;;;;;5031870;28;20025;-72
2021/04/10 06:49:23;;;;;;;7.13;1.83;;;7.10;99.90;;;;;;5032881;28;20030;-72
2021/04/10 06:51:49;;;;;;;14.03;2.37;;;7.00;99.90;;;;;;5032036;28;20116;-73
2021/04/10 06:54:16;;;;;;;4.68;1.88;;;7.10;99.90;;;;;;5032925;28;20303;-72
2021/04/10 06:56:56;;;;;;;6.18;1.63;;;7.30;99.90;;;;;;5040499;28;20378;-73
2021/04/10 06:59:39;;;;;;;8.32;1.88;;;7.40;99.90;;;;;;5040952;28;20032;-72
2021/04/10 07:02:10;;;;;;;4.30;1.60;;;7.50;99.90;;;;;;5041563;28;20108;-72
2021/04/10 07:04:38;;;;;;;12.30;2.42;;;7.50;99.90;;;;;;5036455;28;20516;-72
2021/04/10 07:07:03;;;;;;;23.73;3.90;;;7.60;99.90;;;;;;5035365;28;20036;-73
2021/04/10 07:09:32;;;;;;;15.80;6.57;;;7.70;99.90;;;;;;5032195;28;20277;-73
2021/04/10 07:11:58;;;;;;;6.50;2.05;;;7.90;99.90;;;;;;5034059;28;20120;-71
2021/04/10 07:14:24;;;;;;;8.82;1.90;;;7.80;99.90;;;;;;5040417;28;20536;-71
2021/04/10 07:16:49;;;;;;;7.13;1.42;;;7.80;99.90;;;;;;5026982;28;20037;-72
2021/04/10 07:19:16;;;;;;;10.48;2.17;;;7.80;99.90;;;;;;5037980;28;20104;-72
2021/04/10 07:21:42;;;;;;;6.65;1.50;;;7.70;99.90;;;;;;5031106;28;20448;-72
2021/04/10 07:24:08;;;;;;;13.30;1.98;;;7.80;99.90;;;;;;5030289;28;20025;-74
2021/04/10 07:27:07;;;;;;;3.67;1.90;;;7.90;99.90;;;;;;5037580;28;20478;-72
2021/04/10 07:29:43;;;;;;;8.02;1.90;;;8.00;99.90;;;;;;5027976;28;20049;-72
2021/04/10 07:32:34;;;;;;;3.78;1.40;;;8.10;99.90;;;;;;5040050;28;20028;-70
2021/04/10 07:35:03;;;;;;;9.98;1.73;;;8.30;99.90;;;;;;5030896;28;20047;-70
2021/04/10 07:37:31;;;;;;;16.92;2.13;;;8.50;99.90;;;;;;5038612;28;20021;-71
2021/04/10 07:39:57;;;;;;;5.38;1.42;;;8.60;99.90;;;;;;5045622;28;20469;-71
2021/04/10 07:42:27;;;;;;;5.30;2.85;;;8.60;99.90;;;;;;5039658;28;20029;-71
2021/04/10 07:44:53;;;;;;;9.55;2.45;;;8.60;99.90;;;;;;5044301;28;20066;-71
2021/04/10 07:47:31;;;;;;;6.05;2.00;;;8.50;99.90;;;;;;5038635;28;20018;-71
2021/04/10 07:50:15;;;;;;;10.18;2.35;;;8.40;99.90;;;;;;5039163;28;20076;-71
2021/04/10 07:52:40;;;;;;;4.30;1.35;;;8.40;99.90;;;;;;5023056;28;20120;-73
2021/04/10 07:55:07;;;;;;;4.70;1.88;;;8.40;99.90;;;;;;5031436;28;20125;-72
2021/04/10 07:57:32;;;;;;;13.80;2.03;;;8.50;99.90;;;;;;5033906;28;20033;-72
2021/04/10 08:00:00;;;;;;;8.15;1.88;;;8.50;99.90;;;;;;5039935;28;20078;-71
2021/04/10 08:02:33;;;;;;;4.13;1.52;;;8.70;99.90;;;;;;5035487;28;20040;-72
2021/04/10 08:05:01;;;;;;;9.88;2.15;;;8.80;99.90;;;;;;5039865;28;20021;-72
2021/04/10 08:07:31;;;;;;;6.28;2.25;;;8.80;99.90;;;;;;5054568;28;20405;-72
2021/04/10 08:09:59;;;;;;;3.53;1.52;;;8.90;99.90;;;;;;5035696;28;20036;-73
2021/04/10 08:12:26;;;;;;;11.30;1.67;;;8.90;99.90;;;;;;5035224;28;20489;-75
2021/04/10 08:14:52;;;;;;;9.77;1.90;;;8.80;99.90;;;;;;5033228;28;20108;-71
2021/04/10 08:17:41;;;;;;;5.95;1.52;;;8.60;99.90;;;;;;5034983;28;20458;-75
2021/04/10 08:20:28;;;;;;;5.00;1.20;;;8.80;99.90;;;;;;5032925;28;20136;-73
2021/04/10 08:23:21;;;;;;;8.30;1.80;;;9.00;99.90;;;;;;5034499;28;20056;-73
2021/04/10 08:25:47;;;;;;;3.53;1.67;;;9.20;99.90;;;;;;5050158;28;20120;-73
2021/04/10 08:28:16;;;;;;;6.22;1.63;;;9.40;99.90;;;;;;5034741;28;20025;-73
2021/04/10 08:30:43;;;;;;;4.07;1.63;;;9.50;99.90;;;;;;5035585;28;20063;-74
2021/04/10 08:33:09;;;;;;;6.38;2.63;;;9.60;99.90;;;;;;5035518;28;20022;-73
2021/04/10 08:35:36;;;;;;;4.03;1.30;;;9.50;99.90;;;;;;5036159;28;20045;-72
2021/04/10 08:38:03;;;;;;;9.25;1.50;;;9.40;99.90;;;;;;5034054;28;20037;-72
2021/04/10 08:40:30;;;;;;;9.48;1.98;;;9.40;99.90;;;;;;5039064;28;20021;-73
2021/04/10 08:42:58;;;;;;;6.53;1.55;;;9.50;99.90;;;;;;5040731;28;20109;-72
2021/04/10 08:45:34;;;;;;;7.13;1.70;;;9.50;99.90;;;;;;5036671;28;20434;-72
2021/04/10 08:48:02;;;;;;;6.38;0.73;;;9.40;99.90;;;;;;5039196;28;20025;-73
2021/04/10 08:50:30;;;;;;;5.28;1.73;;;9.30;99.90;;;;;;5039747;28;20112;-72
2021/04/10 08:52:56;;;;;;;6.45;1.38;;;9.40;99.90;;;;;;5041449;28;20378;-72
2021/04/10 08:55:22;;;;;;;7.30;1.20;;;9.40;99.90;;;;;;5033040;28;20017;-72
2021/04/10 08:57:48;;;;;;;6.93;1.67;;;9.60;99.90;;;;;;5040476;28;20052;-74
2021/04/10 09:00:21;;;;;;;5.13;1.40;;;9.70;99.90;;;;;;5045522;28;20485;-73
2021/04/10 09:03:00;;;;;;;4.93;1.23;;;9.80;99.90;;;;;;5037277;28;20085;-73
2021/04/10 09:05:44;;;;;;;3.38;1.30;;;9.70;99.90;;;;;;5041128;28;20036;-73
2021/04/10 09:08:28;;;;;;;7.40;1.65;;;9.60;99.90;;;;;;5040441;28;20065;-73
2021/04/10 09:10:58;;;;;;;7.80;1.50;;;9.40;99.90;;;;;;5040241;28;20423;-73
2021/04/10 09:13:29;;;;;;;7.25;1.48;;;9.10;99.90;;;;;;5019733;28;20477;-73
2021/04/10 09:16:48;;;;;;;8.52;1.60;;;9.10;99.90;;;;;;5045836;28;20021;-73
2021/04/10 09:19:23;;;;;;;6.88;1.02;;;9.30;99.90;;;;;;5018995;28;20069;-71
2021/04/10 09:21:59;;;;;;;8.23;1.65;;;9.30;99.90;;;;;;5025637;28;20057;-72
2021/04/10 09:24:36;;;;;;;8.13;1.83;;;9.20;99.90;;;;;;5035521;28;20025;-72
2021/04/10 09:27:05;;;;;;;4.68;1.35;;;9.30;99.90;;;;;;5032957;28;20572;-71
2021/04/10 09:29:52;;;;;;;3.08;1.42;;;9.30;99.90;;;;;;5044696;28;20033;-73
2021/04/10 09:32:39;;;;;;;3.05;1.25;;;9.50;99.90;;;;;;5024585;28;20026;-72
2021/04/10 09:35:06;;;;;;;10.23;2.35;;;9.60;99.90;;;;;;5051076;28;20029;-73
2021/04/10 09:37:32;;;;;;;2.22;1.27;;;9.80;99.90;;;;;;5034846;28;20029;-73
2021/04/10 09:40:06;;;;;;;5.60;1.10;;;9.80;99.90;;;;;;5030865;28;20500;-75
2021/04/10 09:42:35;;;;;;;5.72;1.30;;;9.80;99.90;;;;;;5049162;28;20386;-72
2021/04/10 09:45:11;;;;;;;2.65;0.98;;;9.70;99.90;;;;;;5033749;28;20320;-72
2021/04/10 09:48:10;;;;;;;5.47;1.40;;;9.70;99.90;;;;;;5037036;28;20037;-73
2021/04/10 09:50:43;;;;;;;1.98;1.00;;;9.60;99.90;;;;;;5016792;28;20029;-73
2021/04/10 09:53:19;;;;;;;5.80;1.80;;;9.60;99.90;;;;;;5033668;28;20018;-76
2021/04/10 09:55:56;;;;;;;6.22;1.40;;;9.60;99.90;;;;;;5028924;28;20065;-72
2021/04/10 09:58:25;;;;;;;9.07;1.73;;;9.70;99.90;;;;;;5032389;28;20060;-72
2021/04/10 10:00:55;;;;;;;7.35;1.20;;;9.90;99.90;;;;;;5030615;28;20384;-73
2021/04/10 10:03:23;;;;;;;5.65;1.30;;;9.90;99.90;;;;;;5031376;28;20072;-74
2021/04/10 10:05:50;;;;;;;6.30;1.40;;;10.10;99.90;;;;;;5027762;28;20516;-72
2021/04/10 10:08:17;;;;;;;3.78;1.35;;;10.10;99.90;;;;;;5033301;28;20053;-74
2021/04/10 10:10:46;;;;;;;7.53;2.60;;;9.90;99.90;;;;;;5047006;28;20026;-73
2021/04/10 10:13:16;;;;;;;3.08;1.63;;;9.90;99.90;;;;;;5032087;28;20064;-73
2021/04/10 10:15:44;;;;;;;5.72;1.60;;;9.80;99.90;;;;;;5032608;28;20060;-72
2021/04/10 10:18:21;;;;;;;6.30;1.83;;;9.90;99.90;;;;;;5029834;28;20064;-73
2021/04/10 10:20:52;;;;;;;4.68;1.33;;;10.00;99.90;;;;;;5028703;28;20279;-72
2021/04/10 10:23:18;;;;;;;5.20;1.95;;;10.10;99.90;;;;;;5030954;28;20377;-73
2021/04/10 10:25:44;;;;;;;5.95;1.63;;;10.00;99.90;;;;;;5031601;28;20104;-73
2021/04/10 10:28:15;;;;;;;3.17;1.38;;;10.00;99.90;;;;;;5031505;28;20596;-72
2021/04/10 10:30:41;;;;;;;4.13;1.70;;;9.90;99.90;;;;;;5032331;28;20026;-71
2021/04/10 10:33:07;;;;;;;7.32;1.90;;;9.80;99.90;;;;;;5035430;28;20045;-72
2021/04/10 10:35:33;;;;;;;5.50;1.75;;;9.60;99.90;;;;;;5037603;28;20030;-72
2021/04/10 10:38:08;;;;;;;8.07;1.60;;;9.60;99.90;;;;;;5038749;28;20032;-72
2021/04/10 10:40:34;;;;;;;9.10;1.75;;;9.70;99.90;;;;;;5035666;28;20030;-71
2021/04/10 10:43:06;;;;;;;9.45;2.05;;;9.70;99.90;;;;;;5040025;28;20021;-71
2021/04/10 10:45:41;;;;;;;3.25;1.50;;;9.70;99.90;;;;;;5039363;28;20033;-71
2021/04/10 10:48:35;;;;;;;12.52;1.75;;;9.50;99.90;;;;;;5039328;28;20041;-72
2021/04/10 10:51:00;;;;;;;3.05;1.92;;;9.20;99.90;;;;;;5035280;28;20041;-71
2021/04/10 10:53:32;;;;;;;9.50;1.83;;;9.10;99.90;;;;;;5034059;28;20030;-71
2021/04/10 10:56:11;;;;;;;6.53;1.63;;;9.10;99.90;;;;;;5045836;28;20086;-71
2021/04/10 10:58:42;;;;;;;10.35;1.85;;;8.90;99.90;;;;;;5041362;28;20025;-71
2021/04/10 11:01:18;;;;;;;9.27;1.80;;;8.90;99.90;;;;;;5033207;28;20537;-71
2021/04/10 11:04:17;;;;;;;5.68;1.65;;;8.80;99.90;;;;;;5032513;28;20113;-71
2021/04/10 11:06:47;;;;;;;5.22;1.52;;;8.90;99.90;;;;;;5023318;28;20037;-71
2021/04/10 11:09:19;;;;;;;2.05;1.10;;;8.80;99.90;;;;;;5028464;28;20116;-72
2021/04/10 11:11:47;;;;;;;9.43;2.33;;;8.90;99.90;;;;;;5051425;28;20426;-73
2021/04/10 11:14:26;;;;;;;7.15;1.42;;;8.90;99.90;;;;;;5031237;28;20033;-71
2021/04/10 11:16:53;;;;;;;5.70;1.50;;;9.00;99.90;;;;;;5034526;28;20103;-72
2021/04/10 11:19:27;;;;;;;9.18;3.15;;;9.10;99.90;;;;;;5032835;28;20031;-71
2021/04/10 11:21:53;;;;;;;9.30;1.58;;;9.20;99.90;;;;;;5026348;28;20079;-71
2021/04/10 11:24:19;;;;;;;3.92;1.35;;;9.10;99.90;;;;;;5033238;28;20068;-71
2021/04/10 11:26:53;;;;;;;4.80;1.67;;;9.00;99.90;;;;;;5031354;28;20485;-72
2021/04/10 11:29:29;;;;;;;11.57;1.67;;;9.10;99.90;;;;;;5032479;28;20036;-71
2021/04/10 11:32:05;;;;;;;6.82;1.77;;;9.30;99.90;;;;;;5035954;28;20482;-72
2021/04/10 11:34:35;;;;;;;3.38;1.50;;;9.30;99.90;;;;;;5036583;28;20029;-72
2021/04/10 11:37:03;;;;;;;11.05;1.83;;;9.10;99.90;;;;;;5043742;28;20029;-72
2021/04/10 11:39:29;;;;;;;8.55;2.40;;;9.10;99.90;;;;;;5031654;28;20022;-72
2021/04/10 11:41:56;;;;;;;9.32;1.85;;;8.90;99.90;;;;;;5034776;28;20029;-72
2021/04/10 11:44:23;;;;;;;4.25;1.30;;;9.00;99.90;;;;;;5044743;28;20375;-71
2021/04/10 11:46:59;;;;;;;6.15;1.45;;;9.00;99.90;;;;;;5028312;28;20528;-72
2021/04/10 11:49:29;;;;;;;5.07;1.60;;;9.00;99.90;;;;;;5050347;28;20040;-72
2021/04/10 11:52:07;;;;;;;6.22;1.58;;;9.20;99.90;;;;;;5052088;28;20052;-71
2021/04/10 11:54:33;;;;;;;;;;;9.20;99.90;;;;;;5051349;28;20025;-71
2021/04/10 11:56:59;;;;;;;6.32;1.63;;;9.10;99.90;;;;;;5036859;28;19909;-71
2021/04/10 11:59:34;;;;;;;7.32;1.50;;;9.00;99.90;;;;;;5036718;28;20040;-71
2021/04/10 12:02:02;;;;;;;4.28;2.08;;;8.90;99.90;;;;;;5036664;28;20040;-72
2021/04/10 12:04:40;;;;;;;18.02;1.58;;;9.00;99.90;;;;;;5039740;28;20382;-72
2021/04/10 12:07:08;;;;;;;5.57;1.20;;;8.90;99.90;;;;;;5042708;28;20112;-71
2021/04/10 12:09:41;;;;;;;7.65;1.40;;;8.80;99.90;;;;;;5043383;28;20025;-70
2021/04/10 12:12:11;;;;;;;9.82;1.40;;;8.90;99.90;;;;;;5035674;28;20029;-71
2021/04/10 12:14:40;;;;;;;3.42;1.52;;;9.00;99.90;;;;;;5032489;28;20057;-72
2021/04/10 12:17:06;;;;;;;9.95;1.73;;;9.00;99.90;;;;;;5047885;28;20172;-71
2021/04/10 12:19:32;;;;;;;13.13;2.08;;;9.00;99.90;;;;;;5032887;28;20075;-72
2021/04/10 12:21:59;;;;;;;7.43;1.33;;;8.80;99.90;;;;;;5049097;28;20021;-71
2021/04/10 12:24:24;;;;;;;8.95;1.65;;;8.60;99.90;;;;;;5036081;28;20381;-72
2021/04/10 12:26:50;;;;;;;7.05;2.22;;;8.70;99.90;;;;;;5030491;28;20044;-74
2021/04/10 12:29:15;;;;;;;9.20;1.58;;;8.60;99.90;;;;;;5041194;28;20404;-72
2021/04/10 12:31:41;;;;;;;10.00;1.58;;;8.50;99.90;;;;;;5050295;28;20040;-71
2021/04/10 12:34:07;;;;;;;9.40;1.75;;;8.60;99.90;;;;;;5033551;28;20029;-72
2021/04/10 12:36:33;;;;;;;7.18;1.45;;;8.60;99.90;;;;;;5030890;28;20036;-71
2021/04/10 12:39:00;;;;;;;5.13;1.30;;;8.60;99.90;;;;;;5036082;28;20024;-73
2021/04/10 12:41:26;;;;;;;7.75;1.40;;;8.60;99.90;;;;;;5034200;28;20056;-71
2021/04/10 12:43:52;;;;;;;4.88;2.00;;;8.60;99.90;;;;;;5035896;28;20096;-72
2021/04/10 12:46:19;;;;;;;4.45;1.75;;;8.60;99.90;;;;;;5035675;28;20048;-71
2021/04/10 12:48:46;;;;;;;3.88;2.08;;;8.70;99.90;;;;;;5034283;28;20060;-72
2021/04/10 12:51:12;;;;;;;3.60;1.77;;;8.70;99.90;;;;;;5031003;28;20037;-71
2021/04/10 12:53:38;;;;;;;6.25;2.00;;;8.60;99.90;;;;;;5028752;28;20075;-73
2021/04/10 12:56:04;;;;;;;6.90;2.20;;;8.50;99.90;;;;;;5029890;28;20025;-73
2021/04/10 12:58:29;;;;;;;7.63;2.10;;;8.40;99.90;;;;;;5029258;28;20059;-72
2021/04/10 13:00:55;;;;;;;8.15;3.30;;;8.30;99.90;;;;;;5027649;28;20386;-72
2021/04/10 13:03:22;;;;;;;8.48;2.33;;;8.30;99.90;;;;;;5028653;28;20033;-73
2021/04/10 13:05:48;;;;;;;8.07;2.50;;;8.30;99.90;;;;;;5034047;28;20025;-71